sensor_id;sensor_type;location;lat;lon;timestamp;P1;durP1;ratioP1;P2;durP2;ratioP2
22024;SDS011;11176;51.448;6.650;2023-04-24T00:00:59;3.28;;;1.42;;
22024;SDS011;11176;51.448;6.650;2023-04-24T00:03:27;4.15;;;1.08;;
22024;SDS011;11176;51.448;6.650;2023-04-24T00:05:54;1.65;;;1.00;;
22024;SDS011;11176;51.448;6.650;2023-04-24T00:08:21;2.85;;;1.00;;
22024;SDS011;11176;51.448;6.650;2023-04-24T00:10:48;5.03;;;1.65;;
22024;SDS011;11176;51.448;6.650;2023-04-24T00:13:15;2.38;;;1.38;;
22024;SDS011;11176;51.448;6.650;2023-04-24T00:15:41;2.60;;;1.25;;
22024;SDS011;11176;51.448;6.650;2023-04-24T00:18:09;2.75;;;1.60;;
22024;SDS011;11176;51.448;6.650;2023-04-24T00:20:35;3.13;;;1.20;;
22024;SDS011;11176;51.448;6.650;2023-04-24T00:23:02;1.88;;;1.20;;
22024;SDS011;11176;51.448;6.650;2023-04-24T00:25:28;3.70;;;1.42;;
22024;SDS011;11176;51.448;6.650;2023-04-24T00:27:55;4.38;;;1.65;;
22024;SDS011;11176;51.448;6.650;2023-04-24T00:30:21;4.38;;;1.75;;
22024;SDS011;11176;51.448;6.650;2023-04-24T00:32:48;3.78;;;1.90;;
22024;SDS011;11176;51.448;6.650;2023-04-24T00:35:16;4.63;;;1.90;;
22024;SDS011;11176;51.448;6.650;2023-04-24T00:37:42;3.40;;;1.90;;
22024;SDS011;11176;51.448;6.650;2023-04-24T00:40:10;4.25;;;2.00;;
22024;SDS011;11176;51.448;6.650;2023-04-24T00:42:36;4.93;;;2.08;;
22024;SDS011;11176;51.448;6.650;2023-04-24T00:45:03;4.97;;;2.42;;
22024;SDS011;11176;51.448;6.650;2023-04-24T00:47:31;3.63;;;2.33;;
22024;SDS011;11176;51.448;6.650;2023-04-24T00:50:03;6.10;;;2.35;;
22024;SDS011;11176;51.448;6.650;2023-04-24T00:52:31;4.85;;;2.30;;
22024;SDS011;11176;51.448;6.650;2023-04-24T00:54:58;4.93;;;2.28;;
22024;SDS011;11176;51.448;6.650;2023-04-24T00:57:25;4.78;;;2.30;;
22024;SDS011;11176;51.448;6.650;2023-04-24T00:59:52;6.10;;;2.90;;
22024;SDS011;11176;51.448;6.650;2023-04-24T01:02:19;7.68;;;3.08;;
22024;SDS011;11176;51.448;6.650;2023-04-24T01:04:49;5.68;;;3.05;;
22024;SDS011;11176;51.448;6.650;2023-04-24T01:07:18;6.63;;;3.33;;
22024;SDS011;11176;51.448;6.650;2023-04-24T01:09:47;4.88;;;3.20;;
22024;SDS011;11176;51.448;6.650;2023-04-24T01:12:15;5.28;;;3.50;;
22024;SDS011;11176;51.448;6.650;2023-04-24T01:14:43;4.82;;;3.40;;
22024;SDS011;11176;51.448;6.650;2023-04-24T01:17:10;8.82;;;3.97;;
22024;SDS011;11176;51.448;6.650;2023-04-24T01:19:37;5.57;;;3.40;;
22024;SDS011;11176;51.448;6.650;2023-04-24T01:22:08;5.60;;;3.85;;
22024;SDS011;11176;51.448;6.650;2023-04-24T01:24:37;5.55;;;4.18;;
22024;SDS011;11176;51.448;6.650;2023-04-24T01:27:04;5.97;;;4.57;;
22024;SDS011;11176;51.448;6.650;2023-04-24T01:29:31;8.57;;;4.50;;
22024;SDS011;11176;51.448;6.650;2023-04-24T01:31:58;7.05;;;4.75;;
22024;SDS011;11176;51.448;6.650;2023-04-24T01:34:25;8.10;;;4.68;;
22024;SDS011;11176;51.448;6.650;2023-04-24T01:36:51;6.60;;;4.60;;
22024;SDS011;11176;51.448;6.650;2023-04-24T01:39:18;8.30;;;4.90;;
22024;SDS011;11176;51.448;6.650;2023-04-24T01:41:46;8.85;;;5.22;;
22024;SDS011;11176;51.448;6.650;2023-04-24T01:44:13;7.55;;;4.57;;
22024;SDS011;11176;51.448;6.650;2023-04-24T01:46:40;6.60;;;4.72;;
22024;SDS011;11176;51.448;6.650;2023-04-24T01:49:07;8.77;;;5.57;;
22024;SDS011;11176;51.448;6.650;2023-04-24T01:51:33;6.93;;;4.78;;
22024;SDS011;11176;51.448;6.650;2023-04-24T01:54:02;6.30;;;4.30;;
22024;SDS011;11176;51.448;6.650;2023-04-24T01:56:29;6.80;;;4.75;;
22024;SDS011;11176;51.448;6.650;2023-04-24T01:58:56;7.88;;;5.22;;
22024;SDS011;11176;51.448;6.650;2023-04-24T02:01:23;10.45;;;5.30;;
22024;SDS011;11176;51.448;6.650;2023-04-24T02:03:51;10.32;;;5.53;;
22024;SDS011;11176;51.448;6.650;2023-04-24T02:06:17;7.65;;;4.97;;
22024;SDS011;11176;51.448;6.650;2023-04-24T02:08:44;8.43;;;5.88;;
22024;SDS011;11176;51.448;6.650;2023-04-24T02:11:10;9.82;;;5.38;;
22024;SDS011;11176;51.448;6.650;2023-04-24T02:13:37;11.40;;;6.25;;
22024;SDS011;11176;51.448;6.650;2023-04-24T02:16:04;10.48;;;6.03;;
22024;SDS011;11176;51.448;6.650;2023-04-24T02:18:30;12.02;;;6.97;;
22024;SDS011;11176;51.448;6.650;2023-04-24T02:20:57;13.80;;;7.15;;
22024;SDS011;11176;51.448;6.650;2023-04-24T02:23:23;11.82;;;7.20;;
22024;SDS011;11176;51.448;6.650;2023-04-24T02:25:50;11.05;;;6.88;;
22024;SDS011;11176;51.448;6.650;2023-04-24T02:28:16;12.10;;;7.05;;
22024;SDS011;11176;51.448;6.650;2023-04-24T02:30:43;14.38;;;7.40;;
22024;SDS011;11176;51.448;6.650;2023-04-24T02:33:09;13.93;;;7.53;;
22024;SDS011;11176;51.448;6.650;2023-04-24T02:35:36;16.40;;;7.97;;
22024;SDS011;11176;51.448;6.650;2023-04-24T02:38:02;12.20;;;7.80;;
22024;SDS011;11176;51.448;6.650;2023-04-24T02:40:29;13.68;;;7.78;;
22024;SDS011;11176;51.448;6.650;2023-04-24T02:42:56;11.80;;;7.68;;
22024;SDS011;11176;51.448;6.650;2023-04-24T02:45:23;15.73;;;9.20;;
22024;SDS011;11176;51.448;6.650;2023-04-24T02:47:49;14.73;;;9.50;;
22024;SDS011;11176;51.448;6.650;2023-04-24T02:50:16;14.65;;;8.73;;
22024;SDS011;11176;51.448;6.650;2023-04-24T02:52:43;12.20;;;8.63;;
22024;SDS011;11176;51.448;6.650;2023-04-24T02:55:10;16.02;;;9.68;;
22024;SDS011;11176;51.448;6.650;2023-04-24T02:57:36;15.15;;;9.60;;
22024;SDS011;11176;51.448;6.650;2023-04-24T03:00:03;15.77;;;10.65;;
22024;SDS011;11176;51.448;6.650;2023-04-24T03:02:33;15.25;;;9.98;;
22024;SDS011;11176;51.448;6.650;2023-04-24T03:05:00;14.45;;;10.18;;
22024;SDS011;11176;51.448;6.650;2023-04-24T03:07:28;15.75;;;9.85;;
22024;SDS011;11176;51.448;6.650;2023-04-24T03:09:54;15.50;;;10.23;;
22024;SDS011;11176;51.448;6.650;2023-04-24T03:12:21;13.90;;;9.57;;
22024;SDS011;11176;51.448;6.650;2023-04-24T03:14:49;16.48;;;10.15;;
22024;SDS011;11176;51.448;6.650;2023-04-24T03:17:18;18.02;;;10.30;;
22024;SDS011;11176;51.448;6.650;2023-04-24T03:19:44;19.60;;;11.05;;
22024;SDS011;11176;51.448;6.650;2023-04-24T03:22:11;14.85;;;10.50;;
22024;SDS011;11176;51.448;6.650;2023-04-24T03:24:39;16.65;;;10.63;;
22024;SDS011;11176;51.448;6.650;2023-04-24T03:27:06;18.50;;;10.50;;
22024;SDS011;11176;51.448;6.650;2023-04-24T03:30:02;17.77;;;10.93;;
22024;SDS011;11176;51.448;6.650;2023-04-24T03:32:41;16.20;;;10.45;;
22024;SDS011;11176;51.448;6.650;2023-04-24T03:35:11;15.95;;;11.07;;
22024;SDS011;11176;51.448;6.650;2023-04-24T03:37:38;19.27;;;10.93;;
22024;SDS011;11176;51.448;6.650;2023-04-24T03:40:28;16.92;;;9.77;;
22024;SDS011;11176;51.448;6.650;2023-04-24T03:42:56;16.30;;;10.57;;
22024;SDS011;11176;51.448;6.650;2023-04-24T03:45:23;18.60;;;10.32;;
22024;SDS011;11176;51.448;6.650;2023-04-24T03:47:51;16.15;;;10.27;;
22024;SDS011;11176;51.448;6.650;2023-04-24T03:50:18;14.68;;;10.32;;
22024;SDS011;11176;51.448;6.650;2023-04-24T03:52:44;15.40;;;9.98;;
22024;SDS011;11176;51.448;6.650;2023-04-24T03:55:20;14.77;;;9.88;;
22024;SDS011;11176;51.448;6.650;2023-04-24T03:57:47;18.70;;;10.70;;
22024;SDS011;11176;51.448;6.650;2023-04-24T04:00:20;16.65;;;10.27;;
22024;SDS011;11176;51.448;6.650;2023-04-24T04:02:54;17.17;;;10.23;;
22024;SDS011;11176;51.448;6.650;2023-04-24T04:05:21;14.98;;;10.25;;
22024;SDS011;11176;51.448;6.650;2023-04-24T04:07:48;18.23;;;10.45;;
22024;SDS011;11176;51.448;6.650;2023-04-24T04:10:15;14.45;;;9.82;;
22024;SDS011;11176;51.448;6.650;2023-04-24T04:12:43;14.02;;;9.43;;
22024;SDS011;11176;51.448;6.650;2023-04-24T04:15:09;18.27;;;10.27;;
22024;SDS011;11176;51.448;6.650;2023-04-24T04:17:36;15.20;;;9.38;;
22024;SDS011;11176;51.448;6.650;2023-04-24T04:20:06;12.48;;;9.30;;
22024;SDS011;11176;51.448;6.650;2023-04-24T04:22:37;16.15;;;9.32;;
22024;SDS011;11176;51.448;6.650;2023-04-24T04:25:07;17.52;;;9.32;;
22024;SDS011;11176;51.448;6.650;2023-04-24T04:27:35;14.02;;;9.02;;
22024;SDS011;11176;51.448;6.650;2023-04-24T04:30:08;12.23;;;9.07;;
22024;SDS011;11176;51.448;6.650;2023-04-24T04:32:45;14.02;;;9.00;;
22024;SDS011;11176;51.448;6.650;2023-04-24T04:35:12;16.83;;;8.68;;
22024;SDS011;11176;51.448;6.650;2023-04-24T04:37:39;13.65;;;8.68;;
22024;SDS011;11176;51.448;6.650;2023-04-24T04:40:15;14.70;;;8.85;;
22024;SDS011;11176;51.448;6.650;2023-04-24T04:42:53;14.23;;;9.00;;
22024;SDS011;11176;51.448;6.650;2023-04-24T04:45:21;10.68;;;7.95;;
22024;SDS011;11176;51.448;6.650;2023-04-24T04:48:16;14.00;;;8.20;;
22024;SDS011;11176;51.448;6.650;2023-04-24T04:50:45;14.57;;;8.55;;
22024;SDS011;11176;51.448;6.650;2023-04-24T04:53:11;14.95;;;8.43;;
22024;SDS011;11176;51.448;6.650;2023-04-24T04:55:40;13.07;;;8.40;;
22024;SDS011;11176;51.448;6.650;2023-04-24T04:58:13;14.80;;;7.80;;
22024;SDS011;11176;51.448;6.650;2023-04-24T05:00:39;12.35;;;7.60;;
22024;SDS011;11176;51.448;6.650;2023-04-24T05:03:27;11.20;;;7.25;;
22024;SDS011;11176;51.448;6.650;2023-04-24T05:06:00;10.13;;;7.25;;
22024;SDS011;11176;51.448;6.650;2023-04-24T05:08:28;16.50;;;8.60;;
22024;SDS011;11176;51.448;6.650;2023-04-24T05:10:55;10.43;;;7.40;;
22024;SDS011;11176;51.448;6.650;2023-04-24T05:13:22;11.95;;;7.00;;
22024;SDS011;11176;51.448;6.650;2023-04-24T05:15:53;9.60;;;6.95;;
22024;SDS011;11176;51.448;6.650;2023-04-24T05:18:19;12.00;;;6.93;;
22024;SDS011;11176;51.448;6.650;2023-04-24T05:20:46;9.95;;;6.75;;
22024;SDS011;11176;51.448;6.650;2023-04-24T05:23:13;9.63;;;6.70;;
22024;SDS011;11176;51.448;6.650;2023-04-24T05:25:41;11.32;;;7.07;;
22024;SDS011;11176;51.448;6.650;2023-04-24T05:28:11;10.50;;;7.20;;
22024;SDS011;11176;51.448;6.650;2023-04-24T05:30:38;10.93;;;7.32;;
22024;SDS011;11176;51.448;6.650;2023-04-24T05:33:05;11.90;;;7.72;;
22024;SDS011;11176;51.448;6.650;2023-04-24T05:35:34;11.43;;;8.60;;
22024;SDS011;11176;51.448;6.650;2023-04-24T05:38:01;10.77;;;7.45;;
22024;SDS011;11176;51.448;6.650;2023-04-24T05:40:27;11.95;;;8.40;;
22024;SDS011;11176;51.448;6.650;2023-04-24T05:42:54;12.43;;;8.38;;
22024;SDS011;11176;51.448;6.650;2023-04-24T05:45:23;11.45;;;7.40;;
22024;SDS011;11176;51.448;6.650;2023-04-24T05:47:50;10.15;;;7.35;;
22024;SDS011;11176;51.448;6.650;2023-04-24T05:50:18;10.80;;;7.70;;
22024;SDS011;11176;51.448;6.650;2023-04-24T05:52:45;10.90;;;7.85;;
22024;SDS011;11176;51.448;6.650;2023-04-24T05:55:23;12.13;;;8.15;;
22024;SDS011;11176;51.448;6.650;2023-04-24T05:57:52;14.38;;;8.88;;
22024;SDS011;11176;51.448;6.650;2023-04-24T06:00:19;10.50;;;8.23;;
22024;SDS011;11176;51.448;6.650;2023-04-24T06:02:55;10.93;;;8.27;;
22024;SDS011;11176;51.448;6.650;2023-04-24T06:05:22;13.50;;;8.65;;
22024;SDS011;11176;51.448;6.650;2023-04-24T06:07:51;11.50;;;8.35;;
22024;SDS011;11176;51.448;6.650;2023-04-24T06:10:23;12.82;;;8.18;;
22024;SDS011;11176;51.448;6.650;2023-04-24T06:12:50;10.73;;;8.10;;
22024;SDS011;11176;51.448;6.650;2023-04-24T06:15:18;12.73;;;8.52;;
22024;SDS011;11176;51.448;6.650;2023-04-24T06:17:51;12.75;;;8.52;;
22024;SDS011;11176;51.448;6.650;2023-04-24T06:20:19;10.90;;;8.50;;
22024;SDS011;11176;51.448;6.650;2023-04-24T06:22:45;11.88;;;8.80;;
22024;SDS011;11176;51.448;6.650;2023-04-24T06:25:12;11.63;;;8.35;;
22024;SDS011;11176;51.448;6.650;2023-04-24T06:27:38;10.35;;;7.60;;
22024;SDS011;11176;51.448;6.650;2023-04-24T06:30:07;12.05;;;7.60;;
22024;SDS011;11176;51.448;6.650;2023-04-24T06:32:34;10.52;;;7.22;;
22024;SDS011;11176;51.448;6.650;2023-04-24T06:35:00;11.90;;;7.22;;
22024;SDS011;11176;51.448;6.650;2023-04-24T06:37:27;8.68;;;6.28;;
22024;SDS011;11176;51.448;6.650;2023-04-24T06:39:54;8.23;;;5.97;;
22024;SDS011;11176;51.448;6.650;2023-04-24T06:42:20;9.50;;;5.88;;
22024;SDS011;11176;51.448;6.650;2023-04-24T06:44:48;9.65;;;6.07;;
22024;SDS011;11176;51.448;6.650;2023-04-24T06:47:16;7.00;;;5.57;;
22024;SDS011;11176;51.448;6.650;2023-04-24T06:49:42;6.95;;;5.28;;
22024;SDS011;11176;51.448;6.650;2023-04-24T06:52:09;8.55;;;5.03;;
22024;SDS011;11176;51.448;6.650;2023-04-24T06:54:36;7.45;;;5.25;;
22024;SDS011;11176;51.448;6.650;2023-04-24T06:57:02;6.72;;;5.07;;
22024;SDS011;11176;51.448;6.650;2023-04-24T06:59:29;6.43;;;4.65;;
22024;SDS011;11176;51.448;6.650;2023-04-24T07:01:56;7.82;;;4.57;;
22024;SDS011;11176;51.448;6.650;2023-04-24T07:04:23;7.72;;;5.22;;
22024;SDS011;11176;51.448;6.650;2023-04-24T07:06:51;9.45;;;4.53;;
22024;SDS011;11176;51.448;6.650;2023-04-24T07:09:20;4.35;;;2.78;;
22024;SDS011;11176;51.448;6.650;2023-04-24T07:11:46;2.83;;;1.95;;
22024;SDS011;11176;51.448;6.650;2023-04-24T07:14:13;3.30;;;2.10;;
22024;SDS011;11176;51.448;6.650;2023-04-24T07:16:40;3.55;;;2.00;;
22024;SDS011;11176;51.448;6.650;2023-04-24T07:19:06;3.97;;;1.90;;
22024;SDS011;11176;51.448;6.650;2023-04-24T07:21:33;3.60;;;1.45;;
22024;SDS011;11176;51.448;6.650;2023-04-24T07:23:59;2.05;;;1.10;;
22024;SDS011;11176;51.448;6.650;2023-04-24T07:26:27;2.92;;;1.30;;
22024;SDS011;11176;51.448;6.650;2023-04-24T07:28:55;2.05;;;1.00;;
22024;SDS011;11176;51.448;6.650;2023-04-24T07:31:22;2.90;;;1.38;;
22024;SDS011;11176;51.448;6.650;2023-04-24T07:33:48;2.13;;;1.30;;
22024;SDS011;11176;51.448;6.650;2023-04-24T07:36:15;3.25;;;1.17;;
22024;SDS011;11176;51.448;6.650;2023-04-24T07:38:45;2.25;;;1.30;;
22024;SDS011;11176;51.448;6.650;2023-04-24T07:41:13;1.95;;;1.13;;
22024;SDS011;11176;51.448;6.650;2023-04-24T07:43:40;1.73;;;1.10;;
22024;SDS011;11176;51.448;6.650;2023-04-24T07:46:07;2.17;;;0.95;;
22024;SDS011;11176;51.448;6.650;2023-04-24T07:48:34;2.10;;;0.93;;
22024;SDS011;11176;51.448;6.650;2023-04-24T07:51:01;2.38;;;1.27;;
22024;SDS011;11176;51.448;6.650;2023-04-24T07:53:28;4.18;;;1.08;;
22024;SDS011;11176;51.448;6.650;2023-04-24T07:55:55;2.47;;;1.15;;
22024;SDS011;11176;51.448;6.650;2023-04-24T07:58:22;2.72;;;0.95;;
22024;SDS011;11176;51.448;6.650;2023-04-24T08:00:48;2.15;;;1.17;;
22024;SDS011;11176;51.448;6.650;2023-04-24T08:03:15;1.88;;;1.13;;
22024;SDS011;11176;51.448;6.650;2023-04-24T08:05:44;2.58;;;1.00;;
22024;SDS011;11176;51.448;6.650;2023-04-24T08:08:11;4.38;;;1.27;;
22024;SDS011;11176;51.448;6.650;2023-04-24T08:10:38;3.83;;;1.15;;
22024;SDS011;11176;51.448;6.650;2023-04-24T08:13:04;1.88;;;1.25;;
22024;SDS011;11176;51.448;6.650;2023-04-24T08:15:31;2.45;;;1.27;;
22024;SDS011;11176;51.448;6.650;2023-04-24T08:17:57;2.65;;;1.33;;
22024;SDS011;11176;51.448;6.650;2023-04-24T08:20:24;2.45;;;1.17;;
22024;SDS011;11176;51.448;6.650;2023-04-24T08:22:51;2.67;;;1.45;;
22024;SDS011;11176;51.448;6.650;2023-04-24T08:25:17;2.55;;;1.40;;
22024;SDS011;11176;51.448;6.650;2023-04-24T08:27:45;2.17;;;1.10;;
22024;SDS011;11176;51.448;6.650;2023-04-24T08:30:11;2.25;;;1.40;;
22024;SDS011;11176;51.448;6.650;2023-04-24T08:32:39;1.60;;;1.00;;
22024;SDS011;11176;51.448;6.650;2023-04-24T08:35:05;1.85;;;1.02;;
22024;SDS011;11176;51.448;6.650;2023-04-24T08:37:35;2.17;;;1.10;;
22024;SDS011;11176;51.448;6.650;2023-04-24T08:40:03;2.20;;;1.10;;
22024;SDS011;11176;51.448;6.650;2023-04-24T08:42:33;3.58;;;1.27;;
22024;SDS011;11176;51.448;6.650;2023-04-24T08:45:01;3.03;;;1.05;;
22024;SDS011;11176;51.448;6.650;2023-04-24T08:47:29;4.50;;;1.25;;
22024;SDS011;11176;51.448;6.650;2023-04-24T08:49:56;2.38;;;1.40;;
22024;SDS011;11176;51.448;6.650;2023-04-24T08:52:23;2.33;;;1.25;;
22024;SDS011;11176;51.448;6.650;2023-04-24T08:54:52;4.28;;;2.35;;
22024;SDS011;11176;51.448;6.650;2023-04-24T08:57:19;7.32;;;5.38;;
22024;SDS011;11176;51.448;6.650;2023-04-24T08:59:46;9.05;;;6.93;;
22024;SDS011;11176;51.448;6.650;2023-04-24T09:02:13;9.82;;;7.68;;
22024;SDS011;11176;51.448;6.650;2023-04-24T09:04:41;11.43;;;8.40;;
22024;SDS011;11176;51.448;6.650;2023-04-24T09:07:09;12.82;;;8.82;;
22024;SDS011;11176;51.448;6.650;2023-04-24T09:09:38;14.23;;;9.23;;
22024;SDS011;11176;51.448;6.650;2023-04-24T09:12:05;10.93;;;8.00;;
22024;SDS011;11176;51.448;6.650;2023-04-24T09:14:32;11.55;;;8.13;;
22024;SDS011;11176;51.448;6.650;2023-04-24T09:16:59;12.35;;;8.25;;
22024;SDS011;11176;51.448;6.650;2023-04-24T09:19:25;10.40;;;6.63;;
22024;SDS011;11176;51.448;6.650;2023-04-24T09:21:52;10.55;;;7.00;;
22024;SDS011;11176;51.448;6.650;2023-04-24T09:24:19;10.80;;;6.90;;
22024;SDS011;11176;51.448;6.650;2023-04-24T09:26:49;9.93;;;7.10;;
22024;SDS011;11176;51.448;6.650;2023-04-24T09:29:24;11.48;;;7.47;;
22024;SDS011;11176;51.448;6.650;2023-04-24T09:31:51;13.73;;;7.75;;
22024;SDS011;11176;51.448;6.650;2023-04-24T09:34:21;13.00;;;8.52;;
22024;SDS011;11176;51.448;6.650;2023-04-24T09:36:49;15.43;;;8.25;;
22024;SDS011;11176;51.448;6.650;2023-04-24T09:39:17;11.93;;;7.75;;
22024;SDS011;11176;51.448;6.650;2023-04-24T09:41:47;11.13;;;7.57;;
22024;SDS011;11176;51.448;6.650;2023-04-24T09:44:21;13.68;;;7.65;;
22024;SDS011;11176;51.448;6.650;2023-04-24T09:46:52;14.13;;;8.55;;
22024;SDS011;11176;51.448;6.650;2023-04-24T09:49:23;16.27;;;9.30;;
22024;SDS011;11176;51.448;6.650;2023-04-24T09:51:51;16.42;;;8.73;;
22024;SDS011;11176;51.448;6.650;2023-04-24T09:54:18;15.70;;;9.70;;
22024;SDS011;11176;51.448;6.650;2023-04-24T09:56:48;16.77;;;9.05;;
22024;SDS011;11176;51.448;6.650;2023-04-24T09:59:17;14.98;;;8.18;;
22024;SDS011;11176;51.448;6.650;2023-04-24T10:01:45;15.52;;;7.97;;
22024;SDS011;11176;51.448;6.650;2023-04-24T10:04:18;18.45;;;8.05;;
22024;SDS011;11176;51.448;6.650;2023-04-24T10:06:47;14.15;;;7.30;;
22024;SDS011;11176;51.448;6.650;2023-04-24T10:09:15;17.58;;;7.18;;
22024;SDS011;11176;51.448;6.650;2023-04-24T10:11:44;13.05;;;6.47;;
22024;SDS011;11176;51.448;6.650;2023-04-24T10:14:12;15.02;;;6.60;;
22024;SDS011;11176;51.448;6.650;2023-04-24T10:16:40;14.75;;;6.72;;
22024;SDS011;11176;51.448;6.650;2023-04-24T10:19:08;16.40;;;7.10;;
22024;SDS011;11176;51.448;6.650;2023-04-24T10:21:35;20.33;;;7.10;;
22024;SDS011;11176;51.448;6.650;2023-04-24T10:24:08;22.57;;;8.00;;
22024;SDS011;11176;51.448;6.650;2023-04-24T10:26:35;12.30;;;6.15;;
22024;SDS011;11176;51.448;6.650;2023-04-24T10:29:03;18.52;;;7.28;;
22024;SDS011;11176;51.448;6.650;2023-04-24T10:31:32;21.10;;;7.05;;
22024;SDS011;11176;51.448;6.650;2023-04-24T10:33:59;14.20;;;5.95;;
22024;SDS011;11176;51.448;6.650;2023-04-24T10:36:27;15.18;;;5.20;;
22024;SDS011;11176;51.448;6.650;2023-04-24T10:38:59;12.15;;;6.05;;
22024;SDS011;11176;51.448;6.650;2023-04-24T10:41:27;15.40;;;5.63;;
22024;SDS011;11176;51.448;6.650;2023-04-24T10:44:12;18.48;;;6.13;;
22024;SDS011;11176;51.448;6.650;2023-04-24T10:46:45;9.40;;;4.97;;
22024;SDS011;11176;51.448;6.650;2023-04-24T10:49:14;19.50;;;5.73;;
22024;SDS011;11176;51.448;6.650;2023-04-24T10:54:29;17.85;;;5.65;;
22024;SDS011;11176;51.448;6.650;2023-04-24T10:59:49;18.20;;;6.45;;
22024;SDS011;11176;51.448;6.650;2023-04-24T11:02:18;15.25;;;6.32;;
22024;SDS011;11176;51.448;6.650;2023-04-24T11:04:44;15.98;;;6.13;;
22024;SDS011;11176;51.448;6.650;2023-04-24T11:07:11;20.13;;;6.32;;
22024;SDS011;11176;51.448;6.650;2023-04-24T11:09:38;17.73;;;6.93;;
22024;SDS011;11176;51.448;6.650;2023-04-24T11:12:09;18.23;;;7.32;;
22024;SDS011;11176;51.448;6.650;2023-04-24T11:17:31;16.60;;;5.65;;
22024;SDS011;11176;51.448;6.650;2023-04-24T11:20:06;15.38;;;4.70;;
22024;SDS011;11176;51.448;6.650;2023-04-24T11:22:52;14.80;;;4.75;;
22024;SDS011;11176;51.448;6.650;2023-04-24T11:25:23;12.75;;;4.70;;
22024;SDS011;11176;51.448;6.650;2023-04-24T11:27:51;12.57;;;4.97;;
22024;SDS011;11176;51.448;6.650;2023-04-24T11:30:29;14.43;;;6.07;;
22024;SDS011;11176;51.448;6.650;2023-04-24T11:33:01;10.90;;;3.78;;
22024;SDS011;11176;51.448;6.650;2023-04-24T11:35:29;16.25;;;5.80;;
22024;SDS011;11176;51.448;6.650;2023-04-24T11:38:02;14.13;;;4.43;;
22024;SDS011;11176;51.448;6.650;2023-04-24T11:40:49;15.48;;;6.18;;
22024;SDS011;11176;51.448;6.650;2023-04-24T11:43:16;13.93;;;5.10;;
22024;SDS011;11176;51.448;6.650;2023-04-24T11:45:47;14.48;;;5.53;;
22024;SDS011;11176;51.448;6.650;2023-04-24T11:48:18;14.73;;;5.47;;
22024;SDS011;11176;51.448;6.650;2023-04-24T11:50:49;10.32;;;4.15;;
22024;SDS011;11176;51.448;6.650;2023-04-24T11:53:18;11.02;;;4.18;;
22024;SDS011;11176;51.448;6.650;2023-04-24T11:55:46;13.50;;;4.35;;
22024;SDS011;11176;51.448;6.650;2023-04-24T11:58:13;11.40;;;4.10;;
22024;SDS011;11176;51.448;6.650;2023-04-24T12:00:39;10.07;;;3.85;;
22024;SDS011;11176;51.448;6.650;2023-04-24T12:03:07;9.25;;;4.25;;
22024;SDS011;11176;51.448;6.650;2023-04-24T12:05:35;8.88;;;3.47;;
22024;SDS011;11176;51.448;6.650;2023-04-24T12:08:02;7.07;;;3.30;;
22024;SDS011;11176;51.448;6.650;2023-04-24T12:10:29;6.40;;;3.15;;
22024;SDS011;11176;51.448;6.650;2023-04-24T12:12:57;9.35;;;3.00;;
22024;SDS011;11176;51.448;6.650;2023-04-24T12:15:24;8.80;;;3.17;;
22024;SDS011;11176;51.448;6.650;2023-04-24T12:17:52;9.70;;;2.83;;
22024;SDS011;11176;51.448;6.650;2023-04-24T12:20:29;9.60;;;2.83;;
22024;SDS011;11176;51.448;6.650;2023-04-24T12:22:59;6.55;;;2.30;;
22024;SDS011;11176;51.448;6.650;2023-04-24T12:25:31;7.20;;;2.17;;
22024;SDS011;11176;51.448;6.650;2023-04-24T12:30:32;5.90;;;2.15;;
22024;SDS011;11176;51.448;6.650;2023-04-24T12:33:06;7.70;;;1.80;;
22024;SDS011;11176;51.448;6.650;2023-04-24T12:35:33;6.00;;;1.77;;
22024;SDS011;11176;51.448;6.650;2023-04-24T12:38:05;5.95;;;1.67;;
22024;SDS011;11176;51.448;6.650;2023-04-24T12:40:36;3.72;;;1.65;;
22024;SDS011;11176;51.448;6.650;2023-04-24T12:43:02;6.28;;;2.03;;
22024;SDS011;11176;51.448;6.650;2023-04-24T12:45:42;5.70;;;2.00;;
22024;SDS011;11176;51.448;6.650;2023-04-24T12:48:11;4.85;;;1.77;;
22024;SDS011;11176;51.448;6.650;2023-04-24T12:50:38;7.50;;;1.55;;
22024;SDS011;11176;51.448;6.650;2023-04-24T12:53:05;7.35;;;1.40;;
22024;SDS011;11176;51.448;6.650;2023-04-24T12:55:32;2.65;;;1.17;;
22024;SDS011;11176;51.448;6.650;2023-04-24T12:57:59;3.28;;;1.10;;
22024;SDS011;11176;51.448;6.650;2023-04-24T13:00:25;4.20;;;1.15;;
22024;SDS011;11176;51.448;6.650;2023-04-24T13:02:52;5.78;;;1.23;;
22024;SDS011;11176;51.448;6.650;2023-04-24T13:05:20;4.07;;;1.30;;
22024;SDS011;11176;51.448;6.650;2023-04-24T13:07:50;7.07;;;1.50;;
22024;SDS011;11176;51.448;6.650;2023-04-24T13:10:16;2.30;;;1.00;;
22024;SDS011;11176;51.448;6.650;2023-04-24T13:12:43;3.83;;;1.02;;
22024;SDS011;11176;51.448;6.650;2023-04-24T13:15:12;3.80;;;1.15;;
22024;SDS011;11176;51.448;6.650;2023-04-24T13:17:39;2.58;;;0.88;;
22024;SDS011;11176;51.448;6.650;2023-04-24T13:20:06;4.38;;;1.30;;
22024;SDS011;11176;51.448;6.650;2023-04-24T13:22:33;6.82;;;1.30;;
22024;SDS011;11176;51.448;6.650;2023-04-24T13:24:59;6.75;;;1.23;;
22024;SDS011;11176;51.448;6.650;2023-04-24T13:27:27;4.70;;;1.10;;
22024;SDS011;11176;51.448;6.650;2023-04-24T13:29:53;3.78;;;1.08;;
22024;SDS011;11176;51.448;6.650;2023-04-24T13:32:20;4.28;;;1.10;;
22024;SDS011;11176;51.448;6.650;2023-04-24T13:34:46;6.05;;;1.10;;
22024;SDS011;11176;51.448;6.650;2023-04-24T13:37:13;4.40;;;1.40;;
22024;SDS011;11176;51.448;6.650;2023-04-24T13:39:40;5.43;;;1.42;;
22024;SDS011;11176;51.448;6.650;2023-04-24T13:42:07;3.90;;;1.33;;
22024;SDS011;11176;51.448;6.650;2023-04-24T13:44:34;3.78;;;1.10;;
22024;SDS011;11176;51.448;6.650;2023-04-24T13:47:01;3.58;;;1.65;;
22024;SDS011;11176;51.448;6.650;2023-04-24T13:49:28;6.10;;;1.73;;
22024;SDS011;11176;51.448;6.650;2023-04-24T13:51:54;4.35;;;1.58;;
22024;SDS011;11176;51.448;6.650;2023-04-24T13:54:22;4.82;;;1.80;;
22024;SDS011;11176;51.448;6.650;2023-04-24T13:56:51;6.95;;;2.53;;
22024;SDS011;11176;51.448;6.650;2023-04-24T13:59:21;4.43;;;2.05;;
22024;SDS011;11176;51.448;6.650;2023-04-24T14:01:48;3.75;;;1.23;;
22024;SDS011;11176;51.448;6.650;2023-04-24T14:04:15;3.72;;;1.42;;
22024;SDS011;11176;51.448;6.650;2023-04-24T14:06:42;3.50;;;1.10;;
22024;SDS011;11176;51.448;6.650;2023-04-24T14:09:09;2.80;;;1.13;;
22024;SDS011;11176;51.448;6.650;2023-04-24T14:11:35;3.67;;;1.10;;
22024;SDS011;11176;51.448;6.650;2023-04-24T14:14:02;4.03;;;1.15;;
22024;SDS011;11176;51.448;6.650;2023-04-24T14:16:29;4.03;;;1.23;;
22024;SDS011;11176;51.448;6.650;2023-04-24T14:18:56;5.72;;;1.50;;
22024;SDS011;11176;51.448;6.650;2023-04-24T14:21:23;3.35;;;1.10;;
22024;SDS011;11176;51.448;6.650;2023-04-24T14:23:49;2.38;;;1.00;;
22024;SDS011;11176;51.448;6.650;2023-04-24T14:26:17;2.55;;;1.10;;
22024;SDS011;11176;51.448;6.650;2023-04-24T14:28:43;2.90;;;1.20;;
22024;SDS011;11176;51.448;6.650;2023-04-24T14:31:10;3.70;;;1.30;;
22024;SDS011;11176;51.448;6.650;2023-04-24T14:33:37;3.55;;;1.35;;
22024;SDS011;11176;51.448;6.650;2023-04-24T14:36:03;6.05;;;1.80;;
22024;SDS011;11176;51.448;6.650;2023-04-24T14:38:31;4.63;;;1.77;;
22024;SDS011;11176;51.448;6.650;2023-04-24T14:40:58;6.57;;;1.85;;
22024;SDS011;11176;51.448;6.650;2023-04-24T14:43:33;4.68;;;2.28;;
22024;SDS011;11176;51.448;6.650;2023-04-24T14:46:01;5.78;;;1.70;;
22024;SDS011;11176;51.448;6.650;2023-04-24T14:48:28;4.32;;;1.70;;
22024;SDS011;11176;51.448;6.650;2023-04-24T14:50:54;4.05;;;1.70;;
22024;SDS011;11176;51.448;6.650;2023-04-24T14:53:21;3.95;;;1.90;;
22024;SDS011;11176;51.448;6.650;2023-04-24T14:55:47;4.88;;;1.80;;
22024;SDS011;11176;51.448;6.650;2023-04-24T14:58:14;3.22;;;1.48;;